createdAt,value
2018-08-25T00:00:34.921Z,88.79
2018-08-25T00:01:34.892Z,89.46
2018-08-25T00:02:34.871Z,89.65
2018-08-25T00:03:34.846Z,90.03
2018-08-25T00:04:34.823Z,90.70
2018-08-25T00:05:34.798Z,91.27
2018-08-25T00:06:34.773Z,91.08
2018-08-25T00:07:34.750Z,91.27
2018-08-25T00:08:34.726Z,90.98
2018-08-25T00:09:34.701Z,90.41
2018-08-25T00:10:34.677Z,91.46
2018-08-25T00:11:34.655Z,91.27
2018-08-25T00:12:34.631Z,91.27
2018-08-25T00:13:34.605Z,91.84
2018-08-25T00:14:34.582Z,91.70
2018-08-25T00:15:34.557Z,91.17
2018-08-25T00:16:34.532Z,91.55
2018-08-25T00:17:34.509Z,91.74
2018-08-25T00:18:34.486Z,91.27
2018-08-25T00:19:34.461Z,91.55
2018-08-25T00:20:34.437Z,91.55
2018-08-25T00:21:34.411Z,91.84
2018-08-25T00:22:34.386Z,91.46
2018-08-25T00:23:34.364Z,91.65
2018-08-25T00:24:34.339Z,91.46
2018-08-25T00:25:34.313Z,91.27
2018-08-25T00:26:34.288Z,90.60
2018-08-25T00:27:34.265Z,90.41
2018-08-25T00:28:34.242Z,89.94
2018-08-25T00:29:34.261Z,89.84
2018-08-25T00:30:34.194Z,89.84
2018-08-25T00:31:34.168Z,89.46
2018-08-25T00:32:34.148Z,89.26
2018-08-25T00:33:34.118Z,89.65
2018-08-25T00:34:34.096Z,89.65
2018-08-25T00:35:34.070Z,89.55
2018-08-25T00:36:34.045Z,90.22
2018-08-25T00:37:34.019Z,89.75
2018-08-25T00:38:33.997Z,89.65
2018-08-25T00:39:33.971Z,89.94
2018-08-25T00:40:33.946Z,90.79
2018-08-25T00:41:33.923Z,91.31
2018-08-25T00:42:33.899Z,91.70
2018-08-25T00:43:33.873Z,92.27
2018-08-25T00:44:33.848Z,92.65
2018-08-25T00:45:33.824Z,92.65
2018-08-25T00:46:33.799Z,92.65
2018-08-25T00:47:33.779Z,92.36
2018-08-25T00:48:33.750Z,92.46
2018-08-25T00:49:33.725Z,92.65
2018-08-25T00:50:33.700Z,92.65
2018-08-25T00:51:33.675Z,92.46
2018-08-25T00:52:33.651Z,93.51
2018-08-25T00:53:33.626Z,93.70
2018-08-25T00:54:33.600Z,93.60
2018-08-25T00:55:33.578Z,93.74
2018-08-25T00:56:33.553Z,94.32
2018-08-25T00:57:33.560Z,94.42
2018-08-25T00:58:33.502Z,94.51
2018-08-25T00:59:33.477Z,94.42
2018-08-25T01:00:33.453Z,94.22
2018-08-25T01:01:33.428Z,94.32
2018-08-25T01:02:33.403Z,94.70
2018-08-25T01:03:33.378Z,94.60
2018-08-25T01:04:33.354Z,94.74
2018-08-25T01:05:33.327Z,94.56
2018-08-25T01:06:33.303Z,93.70
2018-08-25T01:07:33.278Z,92.74
2018-08-25T01:08:33.254Z,92.65
2018-08-25T01:09:33.227Z,92.27
2018-08-25T01:10:33.203Z,92.46
2018-08-25T01:11:33.178Z,92.36
2018-08-25T01:12:33.154Z,92.55
2018-08-25T01:13:33.128Z,93.13
2018-08-25T01:14:33.104Z,93.13
2018-08-25T01:15:33.115Z,92.65
2018-08-25T01:16:33.058Z,92.84
2018-08-25T01:17:33.029Z,92.46
2018-08-25T01:18:33.005Z,93.79
2018-08-25T01:19:32.979Z,93.60
2018-08-25T01:20:32.955Z,93.41
2018-08-25T01:21:32.928Z,94.17
2018-08-25T01:22:32.904Z,93.22
2018-08-25T01:23:32.880Z,93.79
2018-08-25T01:24:32.857Z,93.51
2018-08-25T01:25:32.829Z,93.60
2018-08-25T01:26:32.806Z,94.46
2018-08-25T01:27:32.781Z,93.98
2018-08-25T01:28:32.757Z,94.65
2018-08-25T01:29:32.731Z,94.37
2018-08-25T01:30:32.707Z,94.46
2018-08-25T01:31:32.681Z,94.17
2018-08-25T01:32:32.657Z,94.65
2018-08-25T01:33:32.632Z,94.74
2018-08-25T01:34:32.607Z,94.65
2018-08-25T01:35:32.583Z,94.65
2018-08-25T01:36:32.559Z,94.37
2018-08-25T01:37:32.535Z,94.56
2018-08-25T01:38:32.508Z,93.60
2018-08-25T01:39:32.485Z,93.98
2018-08-25T01:40:32.460Z,93.98
2018-08-25T01:41:32.435Z,94.37
2018-08-25T01:42:32.409Z,94.17
2018-08-25T01:43:32.384Z,94.27
2018-08-25T01:44:32.361Z,94.65
2018-08-25T01:45:32.335Z,94.74
2018-08-25T01:46:32.311Z,94.46
2018-08-25T01:47:32.286Z,94.65
2018-08-25T01:48:32.262Z,94.32
2018-08-25T01:49:32.236Z,94.51
2018-08-25T01:50:32.210Z,94.84
2018-08-25T01:51:32.186Z,94.56
2018-08-25T01:52:32.163Z,94.93
2018-08-25T01:53:32.136Z,94.65
2018-08-25T01:54:32.112Z,93.79
2018-08-25T01:55:32.088Z,93.32
2018-08-25T01:56:32.063Z,93.70
2018-08-25T01:57:32.038Z,92.74
2018-08-25T01:58:32.013Z,92.84
2018-08-25T01:59:31.989Z,91.94
2018-08-25T02:00:31.965Z,91.84
2018-08-25T02:01:31.938Z,91.55
2018-08-25T02:02:31.921Z,90.98
2018-08-25T02:03:31.890Z,90.79
2018-08-25T02:04:31.866Z,90.89
2018-08-25T02:05:31.840Z,91.08
2018-08-25T02:06:31.816Z,91.27
2018-08-25T02:07:31.790Z,91.65
2018-08-25T02:08:31.767Z,90.60
2018-08-25T02:09:31.741Z,90.31
2018-08-25T02:10:31.719Z,89.94
2018-08-25T02:11:31.693Z,89.65
2018-08-25T02:12:31.668Z,89.60
2018-08-25T02:13:31.643Z,89.03
2018-08-25T02:14:31.619Z,88.89
2018-08-25T02:15:31.595Z,88.89
2018-08-25T02:16:31.570Z,89.46
2018-08-25T02:17:31.545Z,89.40
2018-08-25T02:18:31.519Z,89.26
2018-08-25T02:19:31.496Z,89.75
2018-08-25T02:20:31.476Z,89.69
2018-08-25T02:21:31.446Z,89.17
2018-08-25T02:22:31.425Z,89.31
2018-08-25T02:23:31.397Z,89.60
2018-08-25T02:24:31.374Z,89.89
2018-08-25T02:25:31.348Z,89.07
2018-08-25T02:26:31.324Z,88.98
2018-08-25T02:27:31.299Z,89.89
2018-08-25T02:28:31.276Z,89.46
2018-08-25T02:29:31.249Z,89.46
2018-08-25T02:30:31.224Z,89.46
2018-08-25T02:31:31.201Z,89.84
2018-08-25T02:32:31.180Z,89.36
2018-08-25T02:33:31.152Z,89.40
2018-08-25T02:34:31.128Z,88.98
2018-08-25T02:35:31.104Z,88.79
2018-08-25T02:36:31.085Z,88.89
2018-08-25T02:37:31.053Z,89.03
2018-08-25T02:38:31.042Z,89.17
2018-08-25T02:39:31.008Z,89.31
2018-08-25T02:40:30.985Z,89.36
2018-08-25T02:41:30.956Z,89.75
2018-08-25T02:42:30.933Z,89.94
2018-08-25T02:43:30.908Z,90.89
2018-08-25T02:44:30.883Z,90.50
2018-08-25T02:45:30.859Z,90.31
2018-08-25T02:46:30.835Z,90.60
2018-08-25T02:47:30.811Z,91.27
2018-08-25T02:48:30.786Z,91.17
2018-08-25T02:49:30.763Z,91.74
2018-08-25T02:50:30.737Z,91.46
2018-08-25T02:51:30.715Z,91.55
2018-08-25T02:52:30.689Z,91.46
2018-08-25T02:53:30.663Z,90.98
2018-08-25T02:54:30.640Z,91.55
2018-08-25T02:55:30.616Z,91.46
2018-08-25T02:56:30.591Z,91.46
2018-08-25T02:57:30.565Z,91.65
2018-08-25T02:58:30.542Z,91.65
2018-08-25T02:59:30.519Z,91.46
2018-08-25T03:00:30.492Z,91.17
2018-08-25T03:01:30.469Z,91.46
2018-08-25T03:02:30.444Z,90.60
2018-08-25T03:03:30.419Z,90.50
2018-08-25T03:04:30.394Z,90.41
2018-08-25T03:05:30.370Z,90.45
2018-08-25T03:06:30.368Z,90.64
2018-08-25T03:07:30.322Z,90.22
2018-08-25T03:08:30.297Z,90.03
2018-08-25T03:09:30.272Z,90.60
2018-08-25T03:10:30.247Z,90.98
2018-08-25T03:11:30.224Z,90.50
2018-08-25T03:12:30.200Z,91.55
2018-08-25T03:13:30.176Z,91.36
2018-08-25T03:14:30.151Z,90.74
2018-08-25T03:15:30.126Z,90.55
2018-08-25T03:16:30.103Z,90.60
2018-08-25T03:17:30.076Z,91.55
2018-08-25T03:18:30.055Z,90.89
2018-08-25T03:19:30.029Z,91.17
2018-08-25T03:20:30.005Z,91.27
2018-08-25T03:21:29.979Z,91.27
2018-08-25T03:22:29.957Z,92.03
2018-08-25T03:23:29.931Z,91.84
2018-08-25T03:24:29.917Z,91.65
2018-08-25T03:25:29.881Z,92.03
2018-08-25T03:26:29.858Z,91.84
2018-08-25T03:27:29.833Z,92.03
2018-08-25T03:28:29.810Z,91.65
2018-08-25T03:29:29.784Z,91.46
2018-08-25T03:30:29.762Z,91.65
2018-08-25T03:31:29.735Z,91.74
2018-08-25T03:32:29.712Z,91.65
2018-08-25T03:33:29.687Z,92.13
2018-08-25T03:34:29.662Z,92.41
2018-08-25T03:35:29.638Z,92.69
2018-08-25T03:36:29.613Z,92.32
2018-08-25T03:37:29.590Z,93.55
2018-08-25T03:38:29.567Z,93.84
2018-08-25T03:39:29.541Z,93.65
2018-08-25T03:40:29.517Z,93.55
2018-08-25T03:41:29.492Z,93.60
2018-08-25T03:42:29.471Z,93.74
2018-08-25T03:43:29.443Z,93.55
2018-08-25T03:44:29.420Z,93.70
2018-08-25T03:45:29.395Z,94.22
2018-08-25T03:46:29.371Z,94.51
2018-08-25T03:47:29.346Z,94.08
2018-08-25T03:48:29.322Z,94.74
2018-08-25T03:49:29.297Z,94.46
2018-08-25T03:50:29.273Z,95.32
2018-08-25T03:51:29.248Z,95.60
2018-08-25T03:52:29.224Z,95.89
2018-08-25T03:53:29.202Z,95.89
2018-08-25T03:54:29.176Z,95.79
2018-08-25T03:55:29.198Z,95.51
2018-08-25T03:56:29.128Z,95.32
2018-08-25T03:57:29.104Z,95.51
2018-08-25T03:58:29.078Z,95.41
2018-08-25T03:59:29.055Z,96.84
2018-08-25T04:00:29.030Z,96.36
2018-08-25T04:01:29.047Z,96.27
2018-08-25T04:02:28.981Z,96.36
2018-08-25T04:03:28.957Z,96.65
2018-08-25T04:04:28.935Z,96.65
2018-08-25T04:05:28.908Z,96.55
2018-08-25T04:06:28.884Z,96.46
2018-08-25T04:07:28.862Z,96.65
2018-08-25T04:08:28.835Z,96.75
2018-08-25T04:09:28.810Z,96.65
2018-08-25T04:10:28.785Z,96.84
2018-08-25T04:11:28.765Z,97.51
2018-08-25T04:12:28.739Z,97.41
2018-08-25T04:13:28.713Z,97.51
2018-08-25T04:14:28.689Z,97.70
2018-08-25T04:15:28.664Z,97.13
2018-08-25T04:16:28.641Z,96.94
2018-08-25T04:17:28.616Z,97.03
2018-08-25T04:18:28.591Z,97.13
2018-08-25T04:19:28.567Z,96.94
2018-08-25T04:20:28.542Z,97.22
2018-08-25T04:21:28.517Z,96.84
2018-08-25T04:22:28.494Z,97.22
2018-08-25T04:23:28.468Z,97.03
2018-08-25T04:24:28.446Z,97.13
2018-08-25T04:25:28.419Z,96.94
2018-08-25T04:26:28.398Z,97.13
2018-08-25T04:27:28.370Z,97.13
2018-08-25T04:28:28.346Z,97.31
2018-08-25T04:29:28.322Z,96.94
2018-08-25T04:30:28.296Z,97.03
2018-08-25T04:31:28.276Z,96.75
2018-08-25T04:32:28.249Z,96.94
2018-08-25T04:33:28.280Z,96.65
2018-08-25T04:34:28.197Z,97.22
2018-08-25T04:35:28.175Z,97.13
2018-08-25T04:36:28.150Z,97.31
2018-08-25T04:37:28.124Z,97.51
2018-08-25T04:38:28.100Z,97.31
2018-08-25T04:39:28.080Z,97.31
2018-08-25T04:40:28.051Z,97.51
2018-08-25T04:41:28.027Z,97.99
2018-08-25T04:42:28.001Z,97.70
2018-08-25T04:43:27.980Z,97.51
2018-08-25T04:44:27.952Z,97.79
2018-08-25T04:45:27.927Z,98.08
2018-08-25T04:46:27.904Z,98.18
2018-08-25T04:47:27.877Z,98.27
2018-08-25T04:48:27.859Z,97.46
2018-08-25T04:49:27.830Z,97.36
2018-08-25T04:50:27.806Z,97.65
2018-08-25T04:51:27.779Z,98.22
2018-08-25T04:52:27.756Z,98.79
2018-08-25T04:53:27.729Z,98.22
2018-08-25T04:54:27.706Z,98.79
2018-08-25T04:55:27.679Z,99.55
2018-08-25T04:56:27.656Z,99.93
2018-08-25T04:57:27.631Z,99.36
2018-08-25T04:58:27.610Z,99.99
2018-08-25T04:59:27.583Z,99.99
2018-08-25T05:00:27.557Z,99.99
2018-08-25T05:01:27.532Z,99.99
2018-08-25T05:02:27.508Z,99.99
2018-08-25T05:03:27.483Z,99.99
2018-08-25T05:04:27.459Z,99.99
2018-08-25T05:05:27.433Z,99.65
2018-08-25T05:06:27.409Z,99.55
2018-08-25T05:07:27.384Z,99.46
2018-08-25T05:08:27.360Z,99.65
2018-08-25T05:09:27.342Z,99.55
2018-08-25T05:10:27.314Z,99.22
2018-08-25T05:11:27.286Z,99.22
2018-08-25T05:12:27.261Z,99.03
2018-08-25T05:13:27.238Z,98.27
2018-08-25T05:14:27.212Z,98.36
2018-08-25T05:15:27.188Z,98.46
2018-08-25T05:16:27.166Z,97.99
2018-08-25T05:17:27.138Z,97.79
2018-08-25T05:18:27.115Z,97.94
2018-08-25T05:19:27.088Z,97.36
2018-08-25T05:20:27.065Z,97.36
2018-08-25T05:21:27.039Z,97.08
2018-08-25T05:22:27.026Z,97.08
2018-08-25T05:23:26.992Z,96.80
2018-08-25T05:24:26.966Z,96.41
2018-08-25T05:25:26.941Z,96.12
2018-08-25T05:26:26.918Z,95.94
2018-08-25T05:27:26.893Z,95.98
2018-08-25T05:28:26.870Z,95.51
2018-08-25T05:29:26.845Z,95.32
2018-08-25T05:30:26.820Z,94.56
2018-08-25T05:31:26.797Z,93.88
2018-08-25T05:32:26.775Z,92.50
2018-08-25T05:33:26.747Z,92.60
2018-08-25T05:34:26.724Z,91.74
2018-08-25T05:35:26.701Z,90.41
2018-08-25T05:36:26.675Z,90.22
2018-08-25T05:37:26.652Z,89.40
2018-08-25T05:38:26.629Z,89.69
2018-08-25T05:39:26.604Z,89.02
2018-08-25T05:40:26.582Z,88.54
2018-08-25T05:41:26.557Z,88.97
2018-08-25T05:42:26.534Z,88.20
2018-08-25T05:43:26.514Z,87.73
2018-08-25T05:44:26.489Z,87.73
2018-08-25T05:45:26.464Z,87.25
2018-08-25T05:46:26.441Z,87.44
2018-08-25T05:47:26.418Z,87.06
2018-08-25T05:48:26.395Z,86.63
2018-08-25T05:49:26.371Z,85.77
2018-08-25T05:50:26.359Z,86.05
2018-08-25T05:51:26.326Z,86.34
2018-08-25T05:52:26.302Z,86.15
2018-08-25T05:53:26.282Z,85.58
2018-08-25T05:54:26.255Z,86.43
2018-08-25T05:55:26.233Z,86.10
2018-08-25T05:56:26.210Z,85.90
2018-08-25T05:57:26.187Z,85.05
2018-08-25T05:58:26.164Z,83.37
2018-08-25T05:59:26.144Z,81.55
2018-08-25T06:00:26.120Z,81.97
2018-08-25T06:01:26.099Z,82.26
2018-08-25T06:02:26.073Z,81.49
2018-08-25T06:03:26.056Z,80.48
2018-08-25T06:04:26.031Z,79.58
2018-08-25T06:05:26.007Z,79.58
2018-08-25T06:06:25.993Z,80.63
2018-08-25T06:07:25.964Z,80.19
2018-08-25T06:08:25.942Z,79.24
2018-08-25T06:09:25.917Z,78.76
2018-08-25T06:10:25.896Z,78.95
2018-08-25T06:11:25.897Z,78.66
2018-08-25T06:12:25.855Z,77.61
2018-08-25T06:13:25.886Z,77.90
2018-08-25T06:14:25.809Z,76.27
2018-08-25T06:15:25.787Z,75.83
2018-08-25T06:16:25.765Z,75.26
2018-08-25T06:17:25.744Z,73.91
2018-08-25T06:18:25.722Z,72.67
2018-08-25T06:19:25.717Z,73.63
2018-08-25T06:20:25.679Z,74.11
2018-08-25T06:21:25.662Z,73.82
2018-08-25T06:22:25.636Z,73.63
2018-08-25T06:23:25.614Z,74.58
2018-08-25T06:24:25.594Z,73.82
2018-08-25T06:25:25.575Z,72.77
2018-08-25T06:26:25.549Z,73.15
2018-08-25T06:27:25.529Z,73.24
2018-08-25T06:28:25.507Z,72.52
2018-08-25T06:29:25.485Z,70.79
2018-08-25T06:30:25.463Z,68.08
2018-08-25T06:31:25.444Z,67.89
2018-08-25T06:32:25.423Z,67.41
2018-08-25T06:33:25.400Z,67.02
2018-08-25T06:34:25.380Z,67.28
2018-08-25T06:35:25.360Z,68.24
2018-08-25T06:36:25.387Z,68.72
2018-08-25T06:37:25.316Z,69.10
2018-08-25T06:38:25.321Z,69.07
2018-08-25T06:39:25.277Z,68.72
2018-08-25T06:40:25.255Z,70.12
2018-08-25T06:41:25.235Z,68.87
2018-08-25T06:42:25.241Z,69.17
2018-08-25T06:43:25.245Z,68.59
2018-08-25T06:44:25.178Z,69.54
2018-08-25T06:45:25.151Z,70.09
2018-08-25T06:46:25.131Z,70.66
2018-08-25T06:47:25.113Z,72.00
2018-08-25T06:48:25.090Z,70.47
2018-08-25T06:49:25.068Z,71.62
2018-08-25T06:50:25.048Z,71.33
2018-08-25T06:51:25.026Z,71.23
2018-08-25T06:52:25.006Z,71.42
2018-08-25T06:53:25.056Z,72.29
2018-08-25T06:54:24.966Z,73.97
2018-08-25T06:55:24.944Z,73.44
2018-08-25T06:56:24.924Z,74.01
2018-08-25T06:57:24.901Z,74.01
2018-08-25T06:58:24.878Z,74.84
2018-08-25T06:59:24.878Z,76.12
2018-08-25T07:00:24.838Z,76.84
2018-08-25T07:01:24.816Z,76.27
2018-08-25T07:02:24.794Z,76.27
2018-08-25T07:03:24.773Z,78.19
2018-08-25T07:04:24.751Z,76.84
2018-08-25T07:05:24.732Z,77.04
2018-08-25T07:06:24.709Z,77.80
2018-08-25T07:07:24.688Z,77.33
2018-08-25T07:08:24.667Z,79.05
2018-08-25T07:09:24.644Z,79.10
2018-08-25T07:10:24.623Z,77.95
2018-08-25T07:11:24.602Z,78.19
2018-08-25T07:12:24.581Z,78.72
2018-08-25T07:13:24.559Z,78.57
2018-08-25T07:14:24.536Z,79.77
2018-08-25T07:15:24.516Z,81.05
2018-08-25T07:16:24.497Z,79.81
2018-08-25T07:17:24.471Z,78.28
2018-08-25T07:18:24.449Z,80.43
2018-08-25T07:19:24.428Z,79.22
2018-08-25T07:20:24.407Z,75.56
2018-08-25T07:21:24.388Z,72.33
2018-08-25T07:22:24.362Z,69.62
2018-08-25T07:23:24.344Z,66.61
2018-08-25T07:24:24.322Z,65.97
2018-08-25T07:25:24.300Z,64.50
2018-08-25T07:26:24.281Z,64.12
2018-08-25T07:27:24.259Z,66.07
2018-08-25T07:28:24.240Z,68.53
2018-08-25T07:29:24.219Z,68.79
2018-08-25T07:30:24.202Z,70.76
2018-08-25T07:31:24.177Z,71.25
2018-08-25T07:32:24.159Z,71.88
2018-08-25T07:33:24.138Z,73.70
2018-08-25T07:34:24.118Z,71.88
2018-08-25T07:35:24.098Z,73.66
2018-08-25T07:36:24.076Z,72.23
2018-08-25T07:37:24.057Z,72.52
2018-08-25T07:38:24.095Z,73.66
2018-08-25T07:39:24.016Z,72.84
2018-08-25T07:40:23.998Z,71.94
2018-08-25T07:41:23.974Z,71.78
2018-08-25T07:42:23.954Z,70.73
2018-08-25T07:43:23.933Z,71.78
2018-08-25T07:44:23.912Z,71.98
2018-08-25T07:45:24.037Z,71.02
2018-08-25T07:46:23.871Z,71.15
2018-08-25T07:47:23.850Z,71.34
2018-08-25T07:48:23.848Z,70.29
2018-08-25T07:49:23.842Z,70.38
2018-08-25T07:50:23.788Z,69.33
2018-08-25T07:51:23.767Z,70.00
2018-08-25T07:52:23.747Z,68.95
2018-08-25T07:53:23.728Z,70.57
2018-08-25T07:54:23.707Z,70.76
2018-08-25T07:55:23.686Z,69.42
2018-08-25T07:56:23.666Z,69.52
2018-08-25T07:57:23.644Z,67.69
2018-08-25T07:58:23.652Z,69.71
2018-08-25T07:59:23.604Z,67.83
2018-08-25T08:00:23.585Z,68.40
2018-08-25T08:01:23.565Z,67.83
2018-08-25T08:02:23.542Z,67.83
2018-08-25T08:03:23.522Z,67.25
2018-08-25T08:04:23.503Z,65.65
2018-08-25T08:05:23.491Z,66.23
2018-08-25T08:06:23.462Z,65.69
2018-08-25T08:07:23.446Z,64.69
2018-08-25T08:08:23.422Z,65.30
2018-08-25T08:09:23.401Z,65.11
2018-08-25T08:10:23.383Z,63.32
2018-08-25T08:11:23.364Z,62.93
2018-08-25T08:12:23.439Z,63.12
2018-08-25T08:13:23.325Z,63.12
2018-08-25T08:14:23.304Z,62.04
2018-08-25T08:15:23.285Z,61.78
2018-08-25T08:16:23.266Z,60.98
2018-08-25T08:17:23.245Z,61.27
2018-08-25T08:18:23.226Z,62.23
2018-08-25T08:19:23.207Z,60.88
2018-08-25T08:20:23.188Z,60.50
2018-08-25T08:21:23.167Z,59.76
2018-08-25T08:22:23.148Z,60.14
2018-08-25T08:23:23.129Z,59.66
2018-08-25T08:24:23.112Z,59.95
2018-08-25T08:25:23.091Z,58.61
2018-08-25T08:26:23.072Z,58.51
2018-08-25T08:27:23.053Z,58.83
2018-08-25T08:28:23.036Z,57.70
2018-08-25T08:29:23.014Z,57.32
2018-08-25T08:30:22.994Z,57.60
2018-08-25T08:31:22.979Z,55.11
2018-08-25T08:32:22.958Z,55.88
2018-08-25T08:33:22.938Z,57.60
2018-08-25T08:34:22.921Z,56.07
2018-08-25T08:35:22.908Z,55.30
2018-08-25T08:36:22.883Z,53.96
2018-08-25T08:37:22.864Z,54.63
2018-08-25T08:38:22.846Z,53.02
2018-08-25T08:39:22.849Z,53.14
2018-08-25T08:40:22.811Z,52.66
2018-08-25T08:41:22.791Z,51.86
2018-08-25T08:42:22.799Z,52.47
2018-08-25T08:43:22.756Z,52.15
2018-08-25T08:44:22.738Z,52.73
2018-08-25T08:45:22.742Z,52.54
2018-08-25T08:46:22.702Z,53.05
2018-08-25T08:47:22.701Z,51.86
2018-08-25T08:48:22.667Z,51.79
2018-08-25T08:49:22.649Z,50.98
2018-08-25T08:50:22.695Z,49.29
2018-08-25T08:51:22.613Z,46.03
2018-08-25T08:52:22.596Z,45.00
2018-08-25T08:53:22.578Z,43.59
2018-08-25T08:54:22.563Z,43.37
2018-08-25T08:55:22.545Z,44.42
2018-08-25T08:56:22.528Z,45.18
2018-08-25T08:57:22.509Z,45.04
2018-08-25T08:58:22.514Z,45.99
2018-08-25T08:59:22.480Z,46.59
2018-08-25T09:00:22.462Z,46.66
2018-08-25T09:01:22.444Z,46.18
2018-08-25T09:02:22.428Z,46.11
2018-08-25T09:03:22.476Z,45.17
2018-08-25T09:04:22.397Z,43.57
2018-08-25T09:05:22.380Z,42.52
2018-08-25T09:06:22.366Z,42.31
2018-08-25T09:07:22.347Z,42.65
2018-08-25T09:08:22.332Z,40.25
2018-08-25T09:09:22.316Z,39.74
2018-08-25T09:10:22.300Z,39.53
2018-08-25T09:11:22.329Z,39.67
2018-08-25T09:12:22.269Z,40.19
2018-08-25T09:13:22.258Z,41.23
2018-08-25T09:14:22.242Z,42.46
2018-08-25T09:15:22.224Z,43.74
2018-08-25T09:16:22.209Z,42.70
2018-08-25T09:17:22.194Z,40.67
2018-08-25T09:18:22.177Z,42.02
2018-08-25T09:19:22.228Z,40.40
2018-08-25T09:20:22.150Z,40.11
2018-08-25T09:21:22.130Z,40.40
2018-08-25T09:22:22.116Z,40.28
2018-08-25T09:23:22.101Z,41.15
2018-08-25T09:24:22.088Z,41.13
2018-08-25T09:25:22.071Z,41.30
2018-08-25T09:26:22.055Z,41.57
2018-08-25T09:27:22.097Z,42.90
2018-08-25T09:28:22.026Z,43.58
2018-08-25T09:29:22.010Z,44.32
2018-08-25T09:30:21.993Z,44.79
2018-08-25T09:31:21.977Z,45.83
2018-08-25T09:32:21.962Z,46.57
2018-08-25T09:33:21.944Z,47.82
2018-08-25T09:34:21.929Z,48.18
2018-08-25T09:35:21.914Z,49.33
2018-08-25T09:36:22.030Z,49.89
2018-08-25T09:37:21.879Z,50.27
2018-08-25T09:38:21.863Z,51.40
2018-08-25T09:39:21.848Z,52.08
2018-08-25T09:40:21.829Z,52.05
2018-08-25T09:41:21.818Z,53.11
2018-08-25T09:42:21.792Z,53.78
2018-08-25T09:43:21.775Z,55.32
2018-08-25T09:44:21.757Z,55.86
2018-08-25T09:45:21.741Z,58.26
2018-08-25T09:46:21.721Z,59.41
2018-08-25T09:47:21.702Z,60.57
2018-08-25T09:48:21.683Z,62.68
2018-08-25T09:49:21.663Z,61.98
2018-08-25T09:50:21.644Z,63.89
2018-08-25T09:51:21.625Z,64.76
2018-08-25T09:52:21.606Z,64.72
2018-08-25T09:53:21.635Z,66.35
2018-08-25T09:54:21.568Z,66.42
2018-08-25T09:55:21.549Z,68.05
2018-08-25T09:56:21.527Z,69.07
2018-08-25T09:57:21.506Z,70.79
2018-08-25T09:58:21.487Z,71.56
2018-08-25T09:59:21.467Z,72.23
2018-08-25T10:00:21.450Z,74.91
2018-08-25T10:01:21.429Z,75.39
2018-08-25T10:02:21.406Z,74.72
2018-08-25T10:03:21.389Z,76.44
2018-08-25T10:04:21.365Z,77.97
2018-08-25T10:05:21.422Z,78.55
2018-08-25T10:06:21.325Z,78.74
2018-08-25T10:07:21.307Z,79.80
2018-08-25T10:08:21.283Z,81.33
2018-08-25T10:09:21.261Z,82.48
2018-08-25T10:10:21.242Z,81.18
2018-08-25T10:11:21.227Z,79.83
2018-08-25T10:12:21.202Z,79.88
2018-08-25T10:13:21.181Z,78.25
2018-08-25T10:14:21.160Z,79.68
2018-08-25T10:15:21.140Z,80.30
2018-08-25T10:16:21.135Z,78.77
2018-08-25T10:17:21.099Z,78.32
2018-08-25T10:18:21.079Z,76.64
2018-08-25T10:19:21.059Z,73.11
2018-08-25T10:20:21.039Z,73.60
2018-08-25T10:21:21.018Z,74.50
2018-08-25T10:22:21.000Z,71.81
2018-08-25T10:23:20.981Z,72.52
2018-08-25T10:24:20.962Z,71.46
2018-08-25T10:25:20.941Z,67.80
2018-08-25T10:26:20.922Z,66.33
2018-08-25T10:27:20.905Z,66.24
2018-08-25T10:28:20.885Z,61.02
2018-08-25T10:29:20.866Z,56.83
2018-08-25T10:30:20.847Z,53.28
2018-08-25T10:31:20.829Z,51.81
2018-08-25T10:32:20.811Z,52.12
2018-08-25T10:33:20.793Z,53.53
2018-08-25T10:34:20.780Z,51.23
2018-08-25T10:35:20.758Z,48.97
2018-08-25T10:36:20.744Z,49.97
2018-08-25T10:37:20.727Z,51.90
2018-08-25T10:38:20.708Z,53.66
2018-08-25T10:39:20.692Z,54.21
2018-08-25T10:40:20.676Z,57.31
2018-08-25T10:41:20.659Z,58.82
2018-08-25T10:42:20.644Z,62.32
2018-08-25T10:43:20.624Z,62.96
2018-08-25T10:44:20.606Z,64.76
2018-08-25T10:45:20.590Z,65.01
2018-08-25T10:46:20.573Z,65.17
2018-08-25T10:47:20.554Z,66.29
2018-08-25T10:48:20.542Z,67.73
2018-08-25T10:49:20.519Z,67.06
2018-08-25T10:50:20.499Z,66.61
2018-08-25T10:51:20.482Z,66.61
2018-08-25T10:52:20.474Z,66.33
2018-08-25T10:53:20.445Z,66.96
2018-08-25T10:54:20.427Z,66.58
2018-08-25T10:55:20.408Z,65.23
2018-08-25T10:56:20.389Z,67.83
2018-08-25T10:57:20.369Z,66.35
2018-08-25T10:58:20.350Z,66.45
2018-08-25T10:59:20.331Z,67.32
2018-08-25T11:00:20.448Z,67.41
2018-08-25T11:01:20.292Z,67.50
2018-08-25T11:02:20.272Z,67.63
2018-08-25T11:03:20.253Z,67.16
2018-08-25T11:04:20.236Z,65.39
2018-08-25T11:05:20.213Z,64.92
2018-08-25T11:06:20.195Z,65.11
2018-08-25T11:07:20.176Z,64.72
2018-08-25T11:08:20.157Z,65.78
2018-08-25T11:09:20.135Z,67.02
2018-08-25T11:10:20.116Z,67.02
2018-08-25T11:11:20.099Z,67.60
2018-08-25T11:12:20.079Z,66.55
2018-08-25T11:13:20.056Z,66.93
2018-08-25T11:14:20.037Z,66.83
2018-08-25T11:15:20.015Z,65.81
2018-08-25T11:16:20.057Z,66.49
2018-08-25T11:17:19.975Z,64.02
2018-08-25T11:18:19.956Z,63.35
2018-08-25T11:19:19.938Z,63.92
2018-08-25T11:20:19.919Z,63.16
2018-08-25T11:21:19.898Z,62.77
2018-08-25T11:22:19.875Z,62.19
2018-08-25T11:23:19.856Z,61.81
2018-08-25T11:24:19.836Z,61.43
2018-08-25T11:25:19.815Z,60.85
2018-08-25T11:26:19.797Z,60.95
2018-08-25T11:27:19.777Z,62.52
2018-08-25T11:28:19.756Z,61.27
2018-08-25T11:29:19.778Z,59.92
2018-08-25T11:30:19.718Z,60.08
2018-08-25T11:31:19.698Z,60.57
2018-08-25T11:32:19.680Z,61.08
2018-08-25T11:33:19.685Z,60.08
2018-08-25T11:34:19.638Z,60.18
2018-08-25T11:35:19.620Z,59.89
2018-08-25T11:36:19.598Z,60.08
2018-08-25T11:37:19.661Z,60.18
2018-08-25T11:38:19.559Z,59.32
2018-08-25T11:39:19.539Z,59.99
2018-08-25T11:40:19.520Z,59.12
2018-08-25T11:41:19.500Z,59.12
2018-08-25T11:42:19.481Z,59.83
2018-08-25T11:43:19.459Z,57.93
2018-08-25T11:44:19.442Z,57.17
2018-08-25T11:45:19.422Z,57.00
2018-08-25T11:46:19.400Z,55.85
2018-08-25T11:47:19.385Z,53.96
2018-08-25T11:48:19.363Z,53.96
2018-08-25T11:49:19.342Z,54.05
2018-08-25T11:50:19.323Z,53.28
2018-08-25T11:51:19.305Z,52.70
2018-08-25T11:52:19.286Z,51.62
2018-08-25T11:53:19.266Z,48.64
2018-08-25T11:54:19.247Z,45.23
2018-08-25T11:55:19.229Z,43.30
2018-08-25T11:56:19.210Z,42.49
2018-08-25T11:57:19.192Z,40.38
2018-08-25T11:58:19.176Z,42.24
2018-08-25T11:59:19.160Z,41.54
2018-08-25T12:00:19.140Z,42.14
2018-08-25T12:01:19.122Z,41.83
2018-08-25T12:02:19.184Z,43.60
2018-08-25T12:03:19.093Z,45.10
2018-08-25T12:04:19.070Z,45.68
2018-08-25T12:05:19.054Z,45.29
2018-08-25T12:06:19.033Z,46.04
2018-08-25T12:07:19.018Z,46.42
2018-08-25T12:08:19.000Z,46.50
2018-08-25T12:09:19.015Z,47.53
2018-08-25T12:10:18.965Z,47.63
2018-08-25T12:11:18.949Z,48.49
2018-08-25T12:12:18.929Z,48.40
2018-08-25T12:13:18.911Z,48.40
2018-08-25T12:14:18.895Z,48.47
2018-08-25T12:15:18.876Z,48.95
2018-08-25T12:16:18.954Z,48.95
2018-08-25T12:17:18.838Z,49.24
2018-08-25T12:18:18.821Z,49.05
2018-08-25T12:19:18.803Z,49.22
2018-08-25T12:20:18.785Z,49.41
2018-08-25T12:21:18.767Z,49.63
2018-08-25T12:22:18.747Z,49.24
2018-08-25T12:23:18.730Z,48.13
2018-08-25T12:24:18.711Z,48.18
2018-08-25T12:25:18.692Z,49.43
2018-08-25T12:26:18.674Z,49.82
2018-08-25T12:27:18.656Z,49.72
2018-08-25T12:28:18.641Z,50.10
2018-08-25T12:29:18.617Z,49.99
2018-08-25T12:30:18.599Z,50.37
2018-08-25T12:31:18.579Z,50.66
2018-08-25T12:32:18.561Z,51.43
2018-08-25T12:33:18.551Z,51.11
2018-08-25T12:34:18.523Z,51.21
2018-08-25T12:35:18.504Z,52.55
2018-08-25T12:36:18.489Z,54.47
2018-08-25T12:37:18.466Z,55.99
2018-08-25T12:38:18.446Z,56.85
2018-08-25T12:39:18.444Z,58.64
2018-08-25T12:40:18.408Z,59.41
2018-08-25T12:41:18.388Z,60.18
2018-08-25T12:42:18.368Z,61.59
2018-08-25T12:43:18.368Z,63.89
2018-08-25T12:44:18.329Z,66.49
2018-08-25T12:45:18.309Z,67.35
2018-08-25T12:46:18.290Z,67.35
2018-08-25T12:47:18.270Z,67.44
2018-08-25T12:48:18.248Z,67.06
2018-08-25T12:49:18.228Z,63.99
2018-08-25T12:50:18.209Z,63.70
2018-08-25T12:51:18.188Z,63.48
2018-08-25T12:52:18.168Z,60.42